sensor_id;sensor_type;location;lat;lon;timestamp;pressure;altitude;pressure_sealevel;temperature
78917;BMP280;68315;48.608;11.436;2023-03-14T00:01:50;95694.03;;;10.77
78917;BMP280;68315;48.608;11.436;2023-03-14T00:04:15;95681.69;;;10.68
78917;BMP280;68315;48.608;11.436;2023-03-14T00:06:41;95692.38;;;10.64
78917;BMP280;68315;48.608;11.436;2023-03-14T00:09:06;95688.91;;;10.64
78917;BMP280;68315;48.608;11.436;2023-03-14T00:11:32;95696.97;;;10.62
78917;BMP280;68315;48.608;11.436;2023-03-14T00:13:59;95700.13;;;10.58
78917;BMP280;68315;48.608;11.436;2023-03-14T00:16:25;95704.56;;;10.54
78917;BMP280;68315;48.608;11.436;2023-03-14T00:18:51;95710.31;;;10.48
78917;BMP280;68315;48.608;11.436;2023-03-14T00:21:16;95729.19;;;10.44
78917;BMP280;68315;48.608;11.436;2023-03-14T00:23:42;95714.75;;;10.44
78917;BMP280;68315;48.608;11.436;2023-03-14T00:26:10;95711.69;;;10.57
78917;BMP280;68315;48.608;11.436;2023-03-14T00:28:36;95721.53;;;10.60
78917;BMP280;68315;48.608;11.436;2023-03-14T00:31:03;95720.00;;;10.66
78917;BMP280;68315;48.608;11.436;2023-03-14T00:33:29;95705.94;;;10.62
78917;BMP280;68315;48.608;11.436;2023-03-14T00:35:59;95707.66;;;10.58
78917;BMP280;68315;48.608;11.436;2023-03-14T00:38:26;95707.38;;;10.46
78917;BMP280;68315;48.608;11.436;2023-03-14T00:40:52;95707.81;;;10.43
78917;BMP280;68315;48.608;11.436;2023-03-14T00:43:18;95695.91;;;10.40
78917;BMP280;68315;48.608;11.436;2023-03-14T00:45:44;95692.22;;;10.28
78917;BMP280;68315;48.608;11.436;2023-03-14T00:48:09;95694.94;;;10.28
78917;BMP280;68315;48.608;11.436;2023-03-14T00:50:35;95685.50;;;10.22
78917;BMP280;68315;48.608;11.436;2023-03-14T00:53:00;95689.53;;;10.21
78917;BMP280;68315;48.608;11.436;2023-03-14T00:55:25;95683.56;;;10.15
78917;BMP280;68315;48.608;11.436;2023-03-14T00:57:51;95703.91;;;10.11
78917;BMP280;68315;48.608;11.436;2023-03-14T01:00:16;95707.59;;;10.06
78917;BMP280;68315;48.608;11.436;2023-03-14T01:02:43;95716.97;;;10.03
78917;BMP280;68315;48.608;11.436;2023-03-14T01:05:09;95712.91;;;10.04
78917;BMP280;68315;48.608;11.436;2023-03-14T01:07:35;95719.50;;;10.09
78917;BMP280;68315;48.608;11.436;2023-03-14T01:10:01;95724.41;;;10.10
78917;BMP280;68315;48.608;11.436;2023-03-14T01:12:27;95742.41;;;10.21
78917;BMP280;68315;48.608;11.436;2023-03-14T01:14:52;95735.38;;;10.28
78917;BMP280;68315;48.608;11.436;2023-03-14T01:17:17;95736.84;;;10.46
78917;BMP280;68315;48.608;11.436;2023-03-14T01:19:42;95742.34;;;10.46
78917;BMP280;68315;48.608;11.436;2023-03-14T01:22:08;95741.47;;;10.43
78917;BMP280;68315;48.608;11.436;2023-03-14T01:24:33;95751.81;;;10.52
78917;BMP280;68315;48.608;11.436;2023-03-14T01:26:58;95747.41;;;10.57
78917;BMP280;68315;48.608;11.436;2023-03-14T01:29:23;95745.34;;;10.57
78917;BMP280;68315;48.608;11.436;2023-03-14T01:31:49;95756.25;;;10.48
78917;BMP280;68315;48.608;11.436;2023-03-14T01:34:14;95765.13;;;10.39
78917;BMP280;68315;48.608;11.436;2023-03-14T01:36:39;95767.88;;;10.39
78917;BMP280;68315;48.608;11.436;2023-03-14T01:39:04;95738.50;;;10.32
78917;BMP280;68315;48.608;11.436;2023-03-14T01:41:31;95744.59;;;10.23
78917;BMP280;68315;48.608;11.436;2023-03-14T01:43:56;95745.75;;;10.12
78917;BMP280;68315;48.608;11.436;2023-03-14T01:46:28;95727.72;;;10.09
78917;BMP280;68315;48.608;11.436;2023-03-14T01:51:32;95709.19;;;9.92
78917;BMP280;68315;48.608;11.436;2023-03-14T01:54:05;95707.56;;;9.89
78917;BMP280;68315;48.608;11.436;2023-03-14T01:56:32;95708.91;;;9.81
78917;BMP280;68315;48.608;11.436;2023-03-14T01:58:58;95698.56;;;9.72
78917;BMP280;68315;48.608;11.436;2023-03-14T02:01:25;95687.25;;;9.68
78917;BMP280;68315;48.608;11.436;2023-03-14T02:03:56;95681.81;;;9.60
78917;BMP280;68315;48.608;11.436;2023-03-14T02:06:29;95651.88;;;9.55
78917;BMP280;68315;48.608;11.436;2023-03-14T02:08:56;95618.81;;;9.53
78917;BMP280;68315;48.608;11.436;2023-03-14T02:11:27;95608.53;;;9.61
78917;BMP280;68315;48.608;11.436;2023-03-14T02:13:53;95577.78;;;9.62
78917;BMP280;68315;48.608;11.436;2023-03-14T02:16:19;95584.97;;;9.58
78917;BMP280;68315;48.608;11.436;2023-03-14T02:18:45;95580.03;;;9.56
78917;BMP280;68315;48.608;11.436;2023-03-14T02:21:25;95563.44;;;9.54
78917;BMP280;68315;48.608;11.436;2023-03-14T02:26:38;95549.34;;;9.58
78917;BMP280;68315;48.608;11.436;2023-03-14T02:29:04;95530.22;;;9.67
78917;BMP280;68315;48.608;11.436;2023-03-14T02:31:29;95530.38;;;9.69
78917;BMP280;68315;48.608;11.436;2023-03-14T02:33:55;95531.19;;;9.62
78917;BMP280;68315;48.608;11.436;2023-03-14T02:36:22;95547.63;;;9.62
78917;BMP280;68315;48.608;11.436;2023-03-14T02:39:10;95553.94;;;9.55
78917;BMP280;68315;48.608;11.436;2023-03-14T02:41:38;95564.31;;;9.57
78917;BMP280;68315;48.608;11.436;2023-03-14T02:44:04;95579.81;;;9.62
78917;BMP280;68315;48.608;11.436;2023-03-14T02:46:29;95585.63;;;9.66
78917;BMP280;68315;48.608;11.436;2023-03-14T02:49:02;95564.44;;;9.66
78917;BMP280;68315;48.608;11.436;2023-03-14T02:51:28;95574.91;;;9.77
78917;BMP280;68315;48.608;11.436;2023-03-14T02:53:54;95571.59;;;9.79
78917;BMP280;68315;48.608;11.436;2023-03-14T02:56:19;95586.19;;;9.81
78917;BMP280;68315;48.608;11.436;2023-03-14T02:58:44;95560.88;;;9.90
78917;BMP280;68315;48.608;11.436;2023-03-14T03:01:10;95568.56;;;9.92
78917;BMP280;68315;48.608;11.436;2023-03-14T03:03:35;95556.50;;;10.04
78917;BMP280;68315;48.608;11.436;2023-03-14T03:06:00;95585.41;;;10.05
78917;BMP280;68315;48.608;11.436;2023-03-14T03:08:26;95581.78;;;10.03
78917;BMP280;68315;48.608;11.436;2023-03-14T03:10:53;95574.28;;;10.03
78917;BMP280;68315;48.608;11.436;2023-03-14T03:13:18;95597.19;;;10.16
78917;BMP280;68315;48.608;11.436;2023-03-14T03:15:44;95573.53;;;10.20
78917;BMP280;68315;48.608;11.436;2023-03-14T03:18:09;95566.38;;;10.25
78917;BMP280;68315;48.608;11.436;2023-03-14T03:20:35;95558.69;;;10.23
78917;BMP280;68315;48.608;11.436;2023-03-14T03:23:00;95569.50;;;10.21
78917;BMP280;68315;48.608;11.436;2023-03-14T03:25:26;95565.72;;;10.17
78917;BMP280;68315;48.608;11.436;2023-03-14T03:27:51;95563.38;;;10.13
78917;BMP280;68315;48.608;11.436;2023-03-14T03:30:18;95555.13;;;10.13
78917;BMP280;68315;48.608;11.436;2023-03-14T03:32:43;95560.97;;;10.17
78917;BMP280;68315;48.608;11.436;2023-03-14T03:35:09;95550.22;;;10.11
78917;BMP280;68315;48.608;11.436;2023-03-14T03:37:34;95562.16;;;10.06
78917;BMP280;68315;48.608;11.436;2023-03-14T03:40:00;95562.50;;;10.10
78917;BMP280;68315;48.608;11.436;2023-03-14T03:42:26;95561.03;;;10.09
78917;BMP280;68315;48.608;11.436;2023-03-14T03:44:51;95551.13;;;10.14
78917;BMP280;68315;48.608;11.436;2023-03-14T03:47:17;95538.69;;;10.13
78917;BMP280;68315;48.608;11.436;2023-03-14T03:49:42;95540.56;;;10.10
78917;BMP280;68315;48.608;11.436;2023-03-14T03:52:07;95548.63;;;10.08
78917;BMP280;68315;48.608;11.436;2023-03-14T03:54:34;95538.19;;;10.07
78917;BMP280;68315;48.608;11.436;2023-03-14T03:56:59;95540.06;;;10.04
78917;BMP280;68315;48.608;11.436;2023-03-14T03:59:24;95560.00;;;10.05
78917;BMP280;68315;48.608;11.436;2023-03-14T04:01:49;95538.78;;;10.05
78917;BMP280;68315;48.608;11.436;2023-03-14T04:04:15;95545.53;;;10.04
78917;BMP280;68315;48.608;11.436;2023-03-14T04:06:40;95533.13;;;10.03
78917;BMP280;68315;48.608;11.436;2023-03-14T04:09:06;95520.56;;;10.00
78917;BMP280;68315;48.608;11.436;2023-03-14T04:11:32;95518.69;;;10.03
78917;BMP280;68315;48.608;11.436;2023-03-14T04:13:57;95527.88;;;9.98
78917;BMP280;68315;48.608;11.436;2023-03-14T04:16:24;95522.22;;;9.96
78917;BMP280;68315;48.608;11.436;2023-03-14T04:18:50;95517.31;;;9.94
78917;BMP280;68315;48.608;11.436;2023-03-14T04:21:15;95527.22;;;9.90
78917;BMP280;68315;48.608;11.436;2023-03-14T04:23:41;95520.84;;;9.87
78917;BMP280;68315;48.608;11.436;2023-03-14T04:26:06;95524.34;;;9.88
78917;BMP280;68315;48.608;11.436;2023-03-14T04:28:31;95520.47;;;9.91
78917;BMP280;68315;48.608;11.436;2023-03-14T04:30:57;95531.66;;;9.85
78917;BMP280;68315;48.608;11.436;2023-03-14T04:33:22;95521.59;;;9.88
78917;BMP280;68315;48.608;11.436;2023-03-14T04:35:48;95558.22;;;9.83
78917;BMP280;68315;48.608;11.436;2023-03-14T04:38:15;95525.69;;;9.79
78917;BMP280;68315;48.608;11.436;2023-03-14T04:40:41;95524.44;;;9.80
78917;BMP280;68315;48.608;11.436;2023-03-14T04:43:08;95533.94;;;9.79
78917;BMP280;68315;48.608;11.436;2023-03-14T04:45:35;95534.66;;;9.80
78917;BMP280;68315;48.608;11.436;2023-03-14T04:48:00;95510.41;;;9.76
78917;BMP280;68315;48.608;11.436;2023-03-14T04:50:25;95508.97;;;9.75
78917;BMP280;68315;48.608;11.436;2023-03-14T04:52:50;95499.81;;;9.73
78917;BMP280;68315;48.608;11.436;2023-03-14T04:55:16;95509.34;;;9.72
78917;BMP280;68315;48.608;11.436;2023-03-14T04:57:41;95505.13;;;9.71
78917;BMP280;68315;48.608;11.436;2023-03-14T05:00:07;95520.00;;;9.68
78917;BMP280;68315;48.608;11.436;2023-03-14T05:02:33;95497.47;;;9.69
78917;BMP280;68315;48.608;11.436;2023-03-14T05:04:59;95497.72;;;9.64
78917;BMP280;68315;48.608;11.436;2023-03-14T05:07:24;95493.44;;;9.70
78917;BMP280;68315;48.608;11.436;2023-03-14T05:09:49;95469.75;;;9.65
78917;BMP280;68315;48.608;11.436;2023-03-14T05:12:14;95479.44;;;9.66
78917;BMP280;68315;48.608;11.436;2023-03-14T05:14:40;95486.03;;;9.63
78917;BMP280;68315;48.608;11.436;2023-03-14T05:17:05;95484.09;;;9.56
78917;BMP280;68315;48.608;11.436;2023-03-14T05:19:30;95465.09;;;9.58
78917;BMP280;68315;48.608;11.436;2023-03-14T05:21:56;95459.63;;;9.51
78917;BMP280;68315;48.608;11.436;2023-03-14T05:24:21;95458.94;;;9.50
78917;BMP280;68315;48.608;11.436;2023-03-14T05:26:46;95460.09;;;9.47
78917;BMP280;68315;48.608;11.436;2023-03-14T05:29:11;95456.19;;;9.50
78917;BMP280;68315;48.608;11.436;2023-03-14T05:31:37;95457.50;;;9.49
78917;BMP280;68315;48.608;11.436;2023-03-14T05:34:02;95451.28;;;9.49
78917;BMP280;68315;48.608;11.436;2023-03-14T05:36:27;95452.03;;;9.49
78917;BMP280;68315;48.608;11.436;2023-03-14T05:38:53;95447.41;;;9.52
78917;BMP280;68315;48.608;11.436;2023-03-14T05:41:18;95444.53;;;9.50
78917;BMP280;68315;48.608;11.436;2023-03-14T05:43:43;95441.91;;;9.52
78917;BMP280;68315;48.608;11.436;2023-03-14T05:46:09;95440.81;;;9.55
78917;BMP280;68315;48.608;11.436;2023-03-14T05:48:34;95447.66;;;9.46
78917;BMP280;68315;48.608;11.436;2023-03-14T05:50:59;95437.22;;;9.45
78917;BMP280;68315;48.608;11.436;2023-03-14T05:53:25;95442.72;;;9.45
78917;BMP280;68315;48.608;11.436;2023-03-14T05:55:52;95437.06;;;9.43
78917;BMP280;68315;48.608;11.436;2023-03-14T05:58:17;95436.13;;;9.48
78917;BMP280;68315;48.608;11.436;2023-03-14T06:00:43;95434.84;;;9.49
78917;BMP280;68315;48.608;11.436;2023-03-14T06:03:08;95431.38;;;9.48
78917;BMP280;68315;48.608;11.436;2023-03-14T06:05:33;95456.03;;;9.48
78917;BMP280;68315;48.608;11.436;2023-03-14T06:07:58;95447.97;;;9.50
78917;BMP280;68315;48.608;11.436;2023-03-14T06:10:23;95430.63;;;9.48
78917;BMP280;68315;48.608;11.436;2023-03-14T06:12:49;95435.41;;;9.47
78917;BMP280;68315;48.608;11.436;2023-03-14T06:15:14;95440.16;;;9.47
78917;BMP280;68315;48.608;11.436;2023-03-14T06:17:39;95436.34;;;9.42
78917;BMP280;68315;48.608;11.436;2023-03-14T06:20:05;95429.75;;;9.45
78917;BMP280;68315;48.608;11.436;2023-03-14T06:22:30;95442.16;;;9.46
78917;BMP280;68315;48.608;11.436;2023-03-14T06:24:55;95431.94;;;9.47
78917;BMP280;68315;48.608;11.436;2023-03-14T06:27:20;95429.75;;;9.45
78917;BMP280;68315;48.608;11.436;2023-03-14T06:29:46;95446.19;;;9.45
78917;BMP280;68315;48.608;11.436;2023-03-14T06:32:11;95440.72;;;9.45
78917;BMP280;68315;48.608;11.436;2023-03-14T06:34:36;95432.66;;;9.47
78917;BMP280;68315;48.608;11.436;2023-03-14T06:37:03;95436.69;;;9.46
78917;BMP280;68315;48.608;11.436;2023-03-14T06:39:28;95420.78;;;9.45
78917;BMP280;68315;48.608;11.436;2023-03-14T06:41:54;95424.25;;;9.45
78917;BMP280;68315;48.608;11.436;2023-03-14T06:44:19;95432.66;;;9.47
78917;BMP280;68315;48.608;11.436;2023-03-14T06:46:44;95425.47;;;9.52
78917;BMP280;68315;48.608;11.436;2023-03-14T06:49:09;95425.47;;;9.52
78917;BMP280;68315;48.608;11.436;2023-03-14T06:51:35;95413.22;;;9.53
78917;BMP280;68315;48.608;11.436;2023-03-14T06:54:00;95423.13;;;9.48
78917;BMP280;68315;48.608;11.436;2023-03-14T06:56:25;95414.28;;;9.57
78917;BMP280;68315;48.608;11.436;2023-03-14T06:58:51;95418.47;;;9.58
78917;BMP280;68315;48.608;11.436;2023-03-14T07:01:27;95419.19;;;9.59
78917;BMP280;68315;48.608;11.436;2023-03-14T07:03:53;95416.75;;;9.63
78917;BMP280;68315;48.608;11.436;2023-03-14T07:06:18;95430.47;;;9.63
78917;BMP280;68315;48.608;11.436;2023-03-14T07:08:44;95415.88;;;9.60
78917;BMP280;68315;48.608;11.436;2023-03-14T07:11:09;95434.66;;;9.64
78917;BMP280;68315;48.608;11.436;2023-03-14T07:13:38;95448.94;;;9.62
78917;BMP280;68315;48.608;11.436;2023-03-14T07:16:04;95461.53;;;9.65
78917;BMP280;68315;48.608;11.436;2023-03-14T07:18:30;95471.22;;;9.66
78917;BMP280;68315;48.608;11.436;2023-03-14T07:20:55;95475.53;;;9.69
78917;BMP280;68315;48.608;11.436;2023-03-14T07:23:20;95474.09;;;9.68
78917;BMP280;68315;48.608;11.436;2023-03-14T07:25:45;95477.88;;;9.73
78917;BMP280;68315;48.608;11.436;2023-03-14T07:28:11;95480.06;;;9.74
78917;BMP280;68315;48.608;11.436;2023-03-14T07:30:36;95483.94;;;9.71
78917;BMP280;68315;48.608;11.436;2023-03-14T07:33:01;95483.34;;;9.73
78917;BMP280;68315;48.608;11.436;2023-03-14T07:35:26;95492.31;;;9.73
78917;BMP280;68315;48.608;11.436;2023-03-14T07:37:52;95475.13;;;9.73
78917;BMP280;68315;48.608;11.436;2023-03-14T07:40:17;95467.09;;;9.75
78917;BMP280;68315;48.608;11.436;2023-03-14T07:42:43;95482.97;;;9.76
78917;BMP280;68315;48.608;11.436;2023-03-14T07:45:09;95474.16;;;9.78
78917;BMP280;68315;48.608;11.436;2023-03-14T07:47:35;95482.56;;;9.80
78917;BMP280;68315;48.608;11.436;2023-03-14T07:50:01;95486.03;;;9.80
78917;BMP280;68315;48.608;11.436;2023-03-14T07:52:26;95469.72;;;9.82
78917;BMP280;68315;48.608;11.436;2023-03-14T07:54:51;95488.94;;;9.82
78917;BMP280;68315;48.608;11.436;2023-03-14T07:57:16;95482.22;;;9.93
78917;BMP280;68315;48.608;11.436;2023-03-14T07:59:42;95488.44;;;9.93
78917;BMP280;68315;48.608;11.436;2023-03-14T08:02:10;95474.31;;;9.97
78917;BMP280;68315;48.608;11.436;2023-03-14T08:04:37;95464.53;;;10.03
78917;BMP280;68315;48.608;11.436;2023-03-14T08:07:02;95477.28;;;10.08
78917;BMP280;68315;48.608;11.436;2023-03-14T08:09:28;95467.91;;;10.11
78917;BMP280;68315;48.608;11.436;2023-03-14T08:11:53;95464.75;;;10.15
78917;BMP280;68315;48.608;11.436;2023-03-14T08:14:18;95480.41;;;10.22
78917;BMP280;68315;48.608;11.436;2023-03-14T08:16:45;95465.28;;;10.31
78917;BMP280;68315;48.608;11.436;2023-03-14T08:19:10;95469.38;;;10.39
78917;BMP280;68315;48.608;11.436;2023-03-14T08:21:35;95458.00;;;10.43
78917;BMP280;68315;48.608;11.436;2023-03-14T08:24:01;95463.91;;;10.49
78917;BMP280;68315;48.608;11.436;2023-03-14T08:26:26;95458.00;;;10.52
78917;BMP280;68315;48.608;11.436;2023-03-14T08:28:51;95454.69;;;10.54
78917;BMP280;68315;48.608;11.436;2023-03-14T08:31:16;95455.88;;;10.60
78917;BMP280;68315;48.608;11.436;2023-03-14T08:33:42;95459.66;;;10.65
78917;BMP280;68315;48.608;11.436;2023-03-14T08:36:08;95459.09;;;10.66
78917;BMP280;68315;48.608;11.436;2023-03-14T08:38:33;95463.16;;;10.65
78917;BMP280;68315;48.608;11.436;2023-03-14T08:41:00;95467.19;;;10.64
78917;BMP280;68315;48.608;11.436;2023-03-14T08:43:26;95466.59;;;10.66
78917;BMP280;68315;48.608;11.436;2023-03-14T08:45:52;95464.16;;;10.70
78917;BMP280;68315;48.608;11.436;2023-03-14T08:48:17;95478.78;;;10.72
78917;BMP280;68315;48.608;11.436;2023-03-14T08:50:44;95465.50;;;10.78
78917;BMP280;68315;48.608;11.436;2023-03-14T08:53:09;95460.16;;;10.80
78917;BMP280;68315;48.608;11.436;2023-03-14T08:55:34;95456.66;;;10.80
78917;BMP280;68315;48.608;11.436;2023-03-14T08:58:00;95449.88;;;10.81
78917;BMP280;68315;48.608;11.436;2023-03-14T09:00:25;95461.59;;;10.81
78917;BMP280;68315;48.608;11.436;2023-03-14T09:02:50;95451.50;;;10.84
78917;BMP280;68315;48.608;11.436;2023-03-14T09:05:16;95448.31;;;10.87
78917;BMP280;68315;48.608;11.436;2023-03-14T09:07:41;95454.53;;;10.88
78917;BMP280;68315;48.608;11.436;2023-03-14T09:10:07;95462.81;;;10.98
78917;BMP280;68315;48.608;11.436;2023-03-14T09:12:33;95456.03;;;10.99
78917;BMP280;68315;48.608;11.436;2023-03-14T09:14:58;95474.97;;;11.04
78917;BMP280;68315;48.608;11.436;2023-03-14T09:17:23;95472.38;;;11.16
78917;BMP280;68315;48.608;11.436;2023-03-14T09:19:49;95460.84;;;11.27
78917;BMP280;68315;48.608;11.436;2023-03-14T09:22:14;95470.81;;;11.32
78917;BMP280;68315;48.608;11.436;2023-03-14T09:24:40;95467.81;;;11.37
78917;BMP280;68315;48.608;11.436;2023-03-14T09:27:06;95463.47;;;11.63
78917;BMP280;68315;48.608;11.436;2023-03-14T09:29:32;95452.44;;;11.92
78917;BMP280;68315;48.608;11.436;2023-03-14T09:32:00;95453.09;;;12.21
78917;BMP280;68315;48.608;11.436;2023-03-14T09:34:25;95449.03;;;12.22
78917;BMP280;68315;48.608;11.436;2023-03-14T09:36:50;95456.75;;;12.14
78917;BMP280;68315;48.608;11.436;2023-03-14T09:39:16;95449.66;;;12.01
78917;BMP280;68315;48.608;11.436;2023-03-14T09:41:44;95458.34;;;12.17
78917;BMP280;68315;48.608;11.436;2023-03-14T09:44:19;95448.91;;;12.20
78917;BMP280;68315;48.608;11.436;2023-03-14T09:46:48;95448.13;;;12.29
78917;BMP280;68315;48.608;11.436;2023-03-14T09:49:41;95452.66;;;12.15
78917;BMP280;68315;48.608;11.436;2023-03-14T09:52:22;95443.72;;;12.14
78917;BMP280;68315;48.608;11.436;2023-03-14T09:55:16;95443.53;;;12.22
78917;BMP280;68315;48.608;11.436;2023-03-14T09:57:43;95448.22;;;12.50
78917;BMP280;68315;48.608;11.436;2023-03-14T10:00:18;95442.38;;;12.65
78917;BMP280;68315;48.608;11.436;2023-03-14T10:02:50;95440.28;;;12.75
78917;BMP280;68315;48.608;11.436;2023-03-14T10:05:19;95428.78;;;12.79
78917;BMP280;68315;48.608;11.436;2023-03-14T10:07:45;95433.16;;;12.72
78917;BMP280;68315;48.608;11.436;2023-03-14T10:10:18;95436.53;;;12.71
78917;BMP280;68315;48.608;11.436;2023-03-14T10:12:46;95433.72;;;12.80
78917;BMP280;68315;48.608;11.436;2023-03-14T10:15:16;95427.97;;;12.76
78917;BMP280;68315;48.608;11.436;2023-03-14T10:17:50;95433.03;;;13.01
78917;BMP280;68315;48.608;11.436;2023-03-14T10:23:33;95418.97;;;12.97
78917;BMP280;68315;48.608;11.436;2023-03-14T10:26:16;95434.25;;;12.88
78917;BMP280;68315;48.608;11.436;2023-03-14T10:28:52;95436.09;;;12.95
78917;BMP280;68315;48.608;11.436;2023-03-14T10:31:18;95444.19;;;13.03
78917;BMP280;68315;48.608;11.436;2023-03-14T10:33:58;95429.81;;;13.04
78917;BMP280;68315;48.608;11.436;2023-03-14T10:36:27;95422.81;;;13.24
78917;BMP280;68315;48.608;11.436;2023-03-14T10:41:47;95419.16;;;13.97
78917;BMP280;68315;48.608;11.436;2023-03-14T10:44:20;95425.16;;;14.05
78917;BMP280;68315;48.608;11.436;2023-03-14T10:46:46;95425.16;;;14.05
78917;BMP280;68315;48.608;11.436;2023-03-14T10:49:27;95441.59;;;13.91
78917;BMP280;68315;48.608;11.436;2023-03-14T10:51:53;95416.91;;;13.61
78917;BMP280;68315;48.608;11.436;2023-03-14T10:54:22;95452.66;;;13.70
78917;BMP280;68315;48.608;11.436;2023-03-14T10:56:58;95433.28;;;13.80
78917;BMP280;68315;48.608;11.436;2023-03-14T10:59:24;95418.91;;;14.04
78917;BMP280;68315;48.608;11.436;2023-03-14T11:04:23;95420.84;;;14.13
78917;BMP280;68315;48.608;11.436;2023-03-14T11:07:48;95414.25;;;14.30
78917;BMP280;68315;48.608;11.436;2023-03-14T11:10:08;95431.56;;;14.54
78917;BMP280;68315;48.608;11.436;2023-03-14T11:15:45;95419.03;;;14.53
78917;BMP280;68315;48.608;11.436;2023-03-14T11:21:08;95413.66;;;14.08
78917;BMP280;68315;48.608;11.436;2023-03-14T11:23:56;95419.59;;;13.93
78917;BMP280;68315;48.608;11.436;2023-03-14T11:29:12;95405.88;;;13.84
78917;BMP280;68315;48.608;11.436;2023-03-14T11:31:43;95406.72;;;13.75
78917;BMP280;68315;48.608;11.436;2023-03-14T11:34:20;95406.16;;;13.88
78917;BMP280;68315;48.608;11.436;2023-03-14T11:36:53;95407.88;;;14.04
78917;BMP280;68315;48.608;11.436;2023-03-14T11:39:20;95390.81;;;14.08
78917;BMP280;68315;48.608;11.436;2023-03-14T11:41:47;95385.44;;;14.21
78917;BMP280;68315;48.608;11.436;2023-03-14T11:44:20;95384.81;;;14.23
78917;BMP280;68315;48.608;11.436;2023-03-14T11:49:47;95386.72;;;14.09
78917;BMP280;68315;48.608;11.436;2023-03-14T11:52:21;95375.69;;;14.09
78917;BMP280;68315;48.608;11.436;2023-03-14T11:54:52;95403.06;;;14.05
78917;BMP280;68315;48.608;11.436;2023-03-14T11:57:21;95386.97;;;14.01
78917;BMP280;68315;48.608;11.436;2023-03-14T12:00:13;95378.53;;;13.88
78917;BMP280;68315;48.608;11.436;2023-03-14T12:10:41;95376.84;;;13.71
78917;BMP280;68315;48.608;11.436;2023-03-14T12:13:09;95373.59;;;13.75
78917;BMP280;68315;48.608;11.436;2023-03-14T12:15:39;95375.59;;;13.63
78917;BMP280;68315;48.608;11.436;2023-03-14T12:18:18;95371.41;;;13.62
78917;BMP280;68315;48.608;11.436;2023-03-14T12:20:51;95372.41;;;13.66
78917;BMP280;68315;48.608;11.436;2023-03-14T12:23:18;95372.53;;;13.68
78917;BMP280;68315;48.608;11.436;2023-03-14T12:25:43;95377.31;;;13.68
78917;BMP280;68315;48.608;11.436;2023-03-14T12:28:20;95376.69;;;13.58
78917;BMP280;68315;48.608;11.436;2023-03-14T12:30:46;95382.66;;;13.54
78917;BMP280;68315;48.608;11.436;2023-03-14T12:33:19;95373.66;;;13.53
78917;BMP280;68315;48.608;11.436;2023-03-14T12:35:50;95344.41;;;13.48
78917;BMP280;68315;48.608;11.436;2023-03-14T12:38:24;95372.47;;;13.57
78917;BMP280;68315;48.608;11.436;2023-03-14T12:41:08;95363.97;;;13.64
78917;BMP280;68315;48.608;11.436;2023-03-14T12:43:38;95367.56;;;13.67
78917;BMP280;68315;48.608;11.436;2023-03-14T12:46:08;95364.31;;;13.59
78917;BMP280;68315;48.608;11.436;2023-03-14T12:48:33;95342.38;;;13.61
78917;BMP280;68315;48.608;11.436;2023-03-14T12:51:03;95407.03;;;13.58
78917;BMP280;68315;48.608;11.436;2023-03-14T12:56:05;95369.47;;;13.64
78917;BMP280;68315;48.608;11.436;2023-03-14T13:01:16;95368.94;;;13.44
78917;BMP280;68315;48.608;11.436;2023-03-14T13:03:53;95359.19;;;13.32
78917;BMP280;68315;48.608;11.436;2023-03-14T13:06:52;95363.22;;;13.19
78917;BMP280;68315;48.608;11.436;2023-03-14T13:12:17;95384.53;;;13.07
78917;BMP280;68315;48.608;11.436;2023-03-14T13:14:53;95356.41;;;12.99
78917;BMP280;68315;48.608;11.436;2023-03-14T13:17:29;95380.97;;;12.95
78917;BMP280;68315;48.608;11.436;2023-03-14T13:19:57;95356.16;;;12.95
78917;BMP280;68315;48.608;11.436;2023-03-14T13:22:28;95382.75;;;12.91
78917;BMP280;68315;48.608;11.436;2023-03-14T13:25:00;95392.03;;;12.86
78917;BMP280;68315;48.608;11.436;2023-03-14T13:27:25;95394.56;;;12.82
78917;BMP280;68315;48.608;11.436;2023-03-14T13:29:52;95381.09;;;12.76
78917;BMP280;68315;48.608;11.436;2023-03-14T13:32:20;95397.97;;;12.71
78917;BMP280;68315;48.608;11.436;2023-03-14T13:34:46;95407.97;;;12.66
78917;BMP280;68315;48.608;11.436;2023-03-14T13:37:19;95411.78;;;12.61
78917;BMP280;68315;48.608;11.436;2023-03-14T13:39:49;95430.09;;;12.56
78917;BMP280;68315;48.608;11.436;2023-03-14T13:42:15;95438.59;;;12.30
78917;BMP280;68315;48.608;11.436;2023-03-14T13:44:41;95454.03;;;11.75
78917;BMP280;68315;48.608;11.436;2023-03-14T13:47:25;95458.81;;;11.27
78917;BMP280;68315;48.608;11.436;2023-03-14T13:49:51;95515.75;;;10.98
78917;BMP280;68315;48.608;11.436;2023-03-14T13:52:28;95490.94;;;10.79
78917;BMP280;68315;48.608;11.436;2023-03-14T13:54:55;95488.13;;;10.69
78917;BMP280;68315;48.608;11.436;2023-03-14T13:57:20;95499.72;;;10.68
78917;BMP280;68315;48.608;11.436;2023-03-14T14:00:04;95509.09;;;10.65
78917;BMP280;68315;48.608;11.436;2023-03-14T14:02:36;95514.59;;;10.65
78917;BMP280;68315;48.608;11.436;2023-03-14T14:05:03;95521.22;;;10.62
78917;BMP280;68315;48.608;11.436;2023-03-14T14:07:29;95516.88;;;10.59
78917;BMP280;68315;48.608;11.436;2023-03-14T14:09:54;95523.00;;;10.67
78917;BMP280;68315;48.608;11.436;2023-03-14T14:12:26;95522.56;;;10.70
78917;BMP280;68315;48.608;11.436;2023-03-14T14:15:16;95552.53;;;10.76
78917;BMP280;68315;48.608;11.436;2023-03-14T14:17:56;95529.81;;;10.75
78917;BMP280;68315;48.608;11.436;2023-03-14T14:20:31;95547.31;;;10.53
78917;BMP280;68315;48.608;11.436;2023-03-14T14:23:01;95555.69;;;10.29
78917;BMP280;68315;48.608;11.436;2023-03-14T14:25:28;95569.75;;;10.16
78917;BMP280;68315;48.608;11.436;2023-03-14T14:27:53;95578.72;;;9.99
78917;BMP280;68315;48.608;11.436;2023-03-14T14:32:46;95601.88;;;9.88
78917;BMP280;68315;48.608;11.436;2023-03-14T14:37:48;95611.63;;;9.82
78917;BMP280;68315;48.608;11.436;2023-03-14T14:40:22;95613.94;;;9.68
78917;BMP280;68315;48.608;11.436;2023-03-14T14:42:48;95620.63;;;9.58
78917;BMP280;68315;48.608;11.436;2023-03-14T14:45:19;95607.22;;;9.62
78917;BMP280;68315;48.608;11.436;2023-03-14T14:47:54;95637.81;;;9.58
78917;BMP280;68315;48.608;11.436;2023-03-14T14:50:59;95640.03;;;9.52
78917;BMP280;68315;48.608;11.436;2023-03-14T14:53:36;95644.03;;;9.51